Pagrindinis puslapis
METAR-TAF:

METAR-TAF

Oro uostai :

Šiovdė, Švedija

platuma: 58-27N, ilguma: 013-58E, Aukštis: 98 m

Dabartinis oras

Ataskaita buvo paskelbta 43 minutes, ne 00:50 UTC
Vėjas 6 kt iš Rytų
Temperatūra 10°C
Drėgmė 93%
Slėgis 996 hPa
Matomumas 10 km arba daugiau

METAR: ESGR 050050Z AUTO 09006KT 9999 NCD 10/09 Q0996

Laikas: 03:33 (01:33 UTC)


TAF: trūkstamas

Orai ataskaitas ir orų prognozės (METAR, TAF).

turimą stotys yra geltonos ir raudonos taškus žemėlapyje.

Perkelti pele per norėdami pamatyti stoties vardą.

Tada spustelėkite, norėdami matyti oro stebėjimo ir prognozės.

Norėdami pakeisti žemėlapį: spustelėkite ant žalios mygtukų su juodo kryžiaus žemyn,; žalią mygtuką su brūkšneliu, jei norite nutolinti; arba žalių rodyklių gretimoms žemėlapius.


METAR-TAF: